createdAt,value
2019-02-08T00:00:00.086Z,17.95
2019-02-08T00:01:00.777Z,17.98
2019-02-08T00:02:01.190Z,17.97
2019-02-08T00:03:00.073Z,17.95
2019-02-08T00:04:00.060Z,17.95
2019-02-08T00:04:59.849Z,17.95
2019-02-08T00:06:00.069Z,17.93
2019-02-08T00:07:02.788Z,17.94
2019-02-08T00:07:59.907Z,17.91
2019-02-08T00:09:00.007Z,17.94
2019-02-08T00:09:59.851Z,17.91
2019-02-08T00:11:00.080Z,17.91
2019-02-08T00:12:00.072Z,17.93
2019-02-08T00:12:59.852Z,17.89
2019-02-08T00:14:00.844Z,17.88
2019-02-08T00:15:00.423Z,17.89
2019-02-08T00:16:00.393Z,17.89
2019-02-08T00:17:00.045Z,17.88
2019-02-08T00:17:59.911Z,17.89
2019-02-08T00:18:59.881Z,17.88
2019-02-08T00:20:00.189Z,17.87
2019-02-08T00:21:00.250Z,17.85
2019-02-08T00:22:02.050Z,17.85
2019-02-08T00:23:00.386Z,17.85
2019-02-08T00:24:00.001Z,17.85
2019-02-08T00:25:00.827Z,17.82
2019-02-08T00:26:00.830Z,17.85
2019-02-08T00:26:59.862Z,17.84
2019-02-08T00:28:00.106Z,17.84
2019-02-08T00:29:00.616Z,17.81
2019-02-08T00:29:59.919Z,17.84
2019-02-08T00:30:59.627Z,17.8
2019-02-08T00:32:00.117Z,17.81
2019-02-08T00:33:00.086Z,17.82
2019-02-08T00:33:59.912Z,17.8
2019-02-08T00:35:01.274Z,17.78
2019-02-08T00:36:00.194Z,17.8
2019-02-08T00:37:02.058Z,17.77
2019-02-08T00:38:00.541Z,17.8
2019-02-08T00:38:59.937Z,17.78
2019-02-08T00:39:59.998Z,17.78
2019-02-08T00:40:59.860Z,17.77
2019-02-08T00:42:00.415Z,17.76
2019-02-08T00:43:00.143Z,17.77
2019-02-08T00:44:01.372Z,17.74
2019-02-08T00:44:59.840Z,17.77
2019-02-08T00:46:00.105Z,17.74
2019-02-08T00:47:00.882Z,17.76
2019-02-08T00:47:59.885Z,17.76
2019-02-08T00:49:00.520Z,17.73
2019-02-08T00:49:59.801Z,17.74
2019-02-08T00:51:00.109Z,17.74
2019-02-08T00:52:02.267Z,17.73
2019-02-08T00:53:00.146Z,17.71
2019-02-08T00:54:01.245Z,17.7
2019-02-08T00:54:59.807Z,17.68
2019-02-08T00:55:59.904Z,17.73
2019-02-08T00:56:59.932Z,17.73
2019-02-08T00:58:00.546Z,17.71
2019-02-08T00:59:01.216Z,17.7
2019-02-08T01:00:00.276Z,17.7
2019-02-08T01:00:59.853Z,17.68
2019-02-08T01:02:00.351Z,17.68
2019-02-08T01:02:59.582Z,17.7
2019-02-08T01:04:00.031Z,17.68
2019-02-08T01:04:59.836Z,17.67
2019-02-08T01:05:59.742Z,17.67
2019-02-08T01:07:02.065Z,17.67
2019-02-08T01:08:01.367Z,17.67
2019-02-08T01:09:00.322Z,17.66
2019-02-08T01:10:01.010Z,17.64
2019-02-08T01:11:00.800Z,17.64
2019-02-08T01:12:00.243Z,17.67
2019-02-08T01:13:00.277Z,17.66
2019-02-08T01:14:01.608Z,17.64
2019-02-08T01:15:00.595Z,17.64
2019-02-08T01:15:59.998Z,17.64
2019-02-08T01:17:00.769Z,17.64
2019-02-08T01:18:00.207Z,17.63
2019-02-08T01:19:00.410Z,17.6
2019-02-08T01:20:00.040Z,17.6
2019-02-08T01:21:00.108Z,17.6
2019-02-08T01:21:59.896Z,17.61
2019-02-08T01:23:00.056Z,17.61
2019-02-08T01:24:00.599Z,17.61
2019-02-08T01:24:59.995Z,17.59
2019-02-08T01:26:00.199Z,17.57
2019-02-08T01:27:00.582Z,17.59
2019-02-08T01:28:00.432Z,17.57
2019-02-08T01:29:00.328Z,17.57
2019-02-08T01:30:00.387Z,17.59
2019-02-08T01:31:00.204Z,17.56
2019-02-08T01:31:59.970Z,17.57
2019-02-08T01:32:59.709Z,17.56
2019-02-08T01:34:00.817Z,17.54
2019-02-08T01:34:59.994Z,17.56
2019-02-08T01:35:59.764Z,17.54
2019-02-08T01:37:00.082Z,17.54
2019-02-08T01:38:00.013Z,17.56
2019-02-08T01:39:00.405Z,17.54
2019-02-08T01:40:01.626Z,17.54
2019-02-08T01:41:01.771Z,17.54
2019-02-08T01:42:00.309Z,17.53
2019-02-08T01:43:00.242Z,17.52
2019-02-08T01:43:59.828Z,17.54
2019-02-08T01:44:59.861Z,17.52
2019-02-08T01:45:59.782Z,17.53
2019-02-08T01:46:59.949Z,17.53
2019-02-08T01:47:59.927Z,17.52
2019-02-08T01:49:00.062Z,17.52
2019-02-08T01:49:59.914Z,17.5
2019-02-08T01:51:00.074Z,17.54
2019-02-08T01:52:00.090Z,17.52
2019-02-08T01:52:59.692Z,17.5
2019-02-08T01:53:59.995Z,17.52
2019-02-08T01:54:59.860Z,17.5
2019-02-08T01:55:59.916Z,17.5
2019-02-08T01:56:59.941Z,17.5
2019-02-08T01:57:59.893Z,17.5
2019-02-08T01:58:59.929Z,17.49
2019-02-08T01:59:59.847Z,17.5
2019-02-08T02:00:59.717Z,17.49
2019-02-08T02:01:59.794Z,17.49
2019-02-08T02:03:00.176Z,17.46
2019-02-08T02:04:00.066Z,17.49
2019-02-08T02:05:00.226Z,17.48
2019-02-08T02:05:59.831Z,17.5
2019-02-08T02:06:59.717Z,17.46
2019-02-08T02:08:00.134Z,17.48
2019-02-08T02:08:59.896Z,17.48
2019-02-08T02:09:59.767Z,17.45
2019-02-08T02:11:00.304Z,17.45
2019-02-08T02:12:00.030Z,17.45
2019-02-08T02:12:59.660Z,17.46
2019-02-08T02:13:59.892Z,17.43
2019-02-08T02:15:00.508Z,17.42
2019-02-08T02:16:00.256Z,17.43
2019-02-08T02:17:00.000Z,17.43
2019-02-08T02:18:00.377Z,17.45
2019-02-08T02:18:59.763Z,17.43
2019-02-08T02:20:00.951Z,17.42
2019-02-08T02:20:59.495Z,17.4
2019-02-08T02:22:00.641Z,17.4
2019-02-08T02:22:59.722Z,17.4
2019-02-08T02:24:00.350Z,17.39
2019-02-08T02:25:00.010Z,17.4
2019-02-08T02:26:00.326Z,17.4
2019-02-08T02:26:59.736Z,17.42
2019-02-08T02:27:59.628Z,17.42
2019-02-08T02:29:00.543Z,17.42
2019-02-08T02:29:59.878Z,17.4
2019-02-08T02:31:00.057Z,17.39
2019-02-08T02:31:59.978Z,17.36
2019-02-08T02:33:00.985Z,17.39
2019-02-08T02:33:59.832Z,17.39
2019-02-08T02:34:59.816Z,17.36
2019-02-08T02:36:00.949Z,17.36
2019-02-08T02:37:00.414Z,17.36
2019-02-08T02:37:59.939Z,17.39
2019-02-08T02:38:59.771Z,17.36
2019-02-08T02:39:59.996Z,17.39
2019-02-08T02:41:01.631Z,17.39
2019-02-08T02:42:00.120Z,17.35
2019-02-08T02:43:00.046Z,17.36
2019-02-08T02:44:00.709Z,17.36
2019-02-08T02:45:00.308Z,17.38
2019-02-08T02:45:59.757Z,17.33
2019-02-08T02:47:00.430Z,17.35
2019-02-08T02:47:59.880Z,17.35
2019-02-08T02:48:59.887Z,17.35
2019-02-08T02:50:00.478Z,17.33
2019-02-08T02:51:00.381Z,17.33
2019-02-08T02:51:59.494Z,17.33
2019-02-08T02:53:00.231Z,17.33
2019-02-08T02:54:05.315Z,17.32
2019-02-08T02:54:59.811Z,17.33
2019-02-08T02:56:00.019Z,17.32
2019-02-08T02:56:59.801Z,17.33
2019-02-08T02:57:59.741Z,17.32
2019-02-08T02:58:59.910Z,17.32
2019-02-08T02:59:59.856Z,17.32
2019-02-08T03:01:00.429Z,17.31
2019-02-08T03:01:59.833Z,17.31
2019-02-08T03:03:00.227Z,17.29
2019-02-08T03:04:00.344Z,17.29
2019-02-08T03:04:59.863Z,17.29
2019-02-08T03:05:59.559Z,17.29
2019-02-08T03:07:00.131Z,17.31
2019-02-08T03:08:00.335Z,17.28
2019-02-08T03:08:59.613Z,17.25
2019-02-08T03:10:00.389Z,17.29
2019-02-08T03:11:01.526Z,17.29
2019-02-08T03:12:00.040Z,17.28
2019-02-08T03:13:00.352Z,17.28
2019-02-08T03:14:00.055Z,17.29
2019-02-08T03:15:00.124Z,17.28
2019-02-08T03:15:59.791Z,17.23
2019-02-08T03:17:00.076Z,17.25
2019-02-08T03:18:00.128Z,17.28
2019-02-08T03:18:59.792Z,17.23
2019-02-08T03:19:59.935Z,17.28
2019-02-08T03:21:00.034Z,17.26
2019-02-08T03:21:59.733Z,17.23
2019-02-08T03:23:00.249Z,17.25
2019-02-08T03:23:59.929Z,17.23
2019-02-08T03:24:59.839Z,17.25
2019-02-08T03:25:59.797Z,17.23
2019-02-08T03:27:01.741Z,17.25
2019-02-08T03:27:59.872Z,17.23
2019-02-08T03:28:59.929Z,17.22
2019-02-08T03:29:59.872Z,17.25
2019-02-08T03:31:00.136Z,17.22
2019-02-08T03:32:00.019Z,17.22
2019-02-08T03:32:59.627Z,17.22
2019-02-08T03:33:59.992Z,17.22
2019-02-08T03:34:59.916Z,17.22
2019-02-08T03:36:01.582Z,17.21
2019-02-08T03:37:00.130Z,17.19
2019-02-08T03:38:00.009Z,17.21
2019-02-08T03:38:59.899Z,17.19
2019-02-08T03:40:00.420Z,17.19
2019-02-08T03:41:00.037Z,17.21
2019-02-08T03:42:00.104Z,17.19
2019-02-08T03:42:59.905Z,17.19
2019-02-08T03:43:59.874Z,17.18
2019-02-08T03:44:59.815Z,17.19
2019-02-08T03:46:00.029Z,17.21
2019-02-08T03:47:00.202Z,17.18
2019-02-08T03:48:00.116Z,17.16
2019-02-08T03:49:00.470Z,17.15
2019-02-08T03:49:59.622Z,17.16
2019-02-08T03:51:01.626Z,17.16
2019-02-08T03:51:59.860Z,17.19
2019-02-08T03:53:00.002Z,17.15
2019-02-08T03:53:59.892Z,17.16
2019-02-08T03:55:00.281Z,17.16
2019-02-08T03:56:00.047Z,17.15
2019-02-08T03:56:59.737Z,17.18
2019-02-08T03:58:00.080Z,17.15
2019-02-08T03:59:00.719Z,17.15
2019-02-08T04:00:00.358Z,17.12
2019-02-08T04:01:00.409Z,17.14
2019-02-08T04:02:00.414Z,17.12
2019-02-08T04:02:59.842Z,17.15
2019-02-08T04:04:00.099Z,17.12
2019-02-08T04:04:59.735Z,17.12
2019-02-08T04:06:00.113Z,17.11
2019-02-08T04:07:00.383Z,17.12
2019-02-08T04:08:00.250Z,17.12
2019-02-08T04:09:00.153Z,17.15
2019-02-08T04:09:59.824Z,17.12
2019-02-08T04:11:00.272Z,17.11
2019-02-08T04:12:00.279Z,17.09
2019-02-08T04:12:59.865Z,17.14
2019-02-08T04:13:59.846Z,17.11
2019-02-08T04:15:01.607Z,17.11
2019-02-08T04:16:00.092Z,17.09
2019-02-08T04:17:00.099Z,17.11
2019-02-08T04:17:59.802Z,17.09
2019-02-08T04:18:59.613Z,17.09
2019-02-08T04:19:59.616Z,17.12
2019-02-08T04:20:59.971Z,17.12
2019-02-08T04:21:59.861Z,17.11
2019-02-08T04:23:00.342Z,17.12
2019-02-08T04:23:59.771Z,17.09
2019-02-08T04:24:59.917Z,17.09
2019-02-08T04:26:00.008Z,17.08
2019-02-08T04:26:59.663Z,17.09
2019-02-08T04:28:00.398Z,17.08
2019-02-08T04:29:00.594Z,17.06
2019-02-08T04:29:59.902Z,17.08
2019-02-08T04:30:59.996Z,17.11
2019-02-08T04:32:00.116Z,17.09
2019-02-08T04:33:01.378Z,17.06
2019-02-08T04:33:59.844Z,17.06
2019-02-08T04:35:00.735Z,17.08
2019-02-08T04:35:59.585Z,17.06
2019-02-08T04:37:00.141Z,17.08
2019-02-08T04:38:00.164Z,17.08
2019-02-08T04:38:59.940Z,17.06
2019-02-08T04:40:00.498Z,17.06
2019-02-08T04:41:01.465Z,17.05
2019-02-08T04:42:00.331Z,17.06
2019-02-08T04:43:00.154Z,17.06
2019-02-08T04:44:00.129Z,17.06
2019-02-08T04:44:59.746Z,17.06
2019-02-08T04:45:59.990Z,17.08
2019-02-08T04:47:01.567Z,17.06
2019-02-08T04:47:59.838Z,17.06
2019-02-08T04:48:59.555Z,17.08
2019-02-08T04:50:00.382Z,17.02
2019-02-08T04:50:59.892Z,17.08
2019-02-08T04:51:59.927Z,17.08
2019-02-08T04:53:00.274Z,17.09
2019-02-08T04:54:01.651Z,17.11
2019-02-08T04:54:59.712Z,17.14
2019-02-08T04:55:59.861Z,17.12
2019-02-08T04:56:59.901Z,17.11
2019-02-08T04:58:00.113Z,17.11
2019-02-08T04:58:59.859Z,17.14
2019-02-08T05:00:01.570Z,17.14
2019-02-08T05:01:00.711Z,17.16
2019-02-08T05:02:00.493Z,17.18
2019-02-08T05:03:00.027Z,17.19
2019-02-08T05:04:00.354Z,17.19
2019-02-08T05:04:59.826Z,17.19
2019-02-08T05:06:00.041Z,17.21
2019-02-08T05:06:59.745Z,17.23
2019-02-08T05:07:59.964Z,17.23
2019-02-08T05:08:59.953Z,17.25
2019-02-08T05:10:00.628Z,17.29
2019-02-08T05:10:59.876Z,17.28
2019-02-08T05:11:59.896Z,17.29
2019-02-08T05:12:59.665Z,17.32
2019-02-08T05:14:00.029Z,17.35
2019-02-08T05:14:59.985Z,17.36
2019-02-08T05:15:59.837Z,17.36
2019-02-08T05:17:00.077Z,17.35
2019-02-08T05:18:01.666Z,17.42
2019-02-08T05:18:59.682Z,17.4
2019-02-08T05:20:00.086Z,17.42
2019-02-08T05:20:59.927Z,17.45
2019-02-08T05:21:59.866Z,17.46
2019-02-08T05:23:00.492Z,17.46
2019-02-08T05:23:59.951Z,17.48
2019-02-08T05:24:59.834Z,17.49
2019-02-08T05:26:00.075Z,17.52
2019-02-08T05:26:59.491Z,17.53
2019-02-08T05:27:59.985Z,17.57
2019-02-08T05:29:01.527Z,17.54
2019-02-08T05:29:59.701Z,17.6
2019-02-08T05:31:00.023Z,17.6
2019-02-08T05:31:59.884Z,17.6
2019-02-08T05:33:00.165Z,17.61
2019-02-08T05:33:59.799Z,17.64
2019-02-08T05:35:00.789Z,17.66
2019-02-08T05:35:59.587Z,17.7
2019-02-08T05:37:01.578Z,17.67
2019-02-08T05:37:59.679Z,17.68
2019-02-08T05:39:00.222Z,17.7
2019-02-08T05:39:59.800Z,17.73
2019-02-08T05:41:01.538Z,17.73
2019-02-08T05:41:59.921Z,17.76
2019-02-08T05:42:59.803Z,17.76
2019-02-08T05:43:59.794Z,17.78
2019-02-08T05:44:59.719Z,17.78
2019-02-08T05:46:00.022Z,17.8
2019-02-08T05:46:59.547Z,17.78
2019-02-08T05:48:00.101Z,17.81
2019-02-08T05:49:00.140Z,17.81
2019-02-08T05:50:00.668Z,17.84
2019-02-08T05:50:59.912Z,17.84
2019-02-08T05:52:00.059Z,17.84
2019-02-08T05:52:59.893Z,17.85
2019-02-08T05:53:59.836Z,17.87
2019-02-08T05:54:59.709Z,17.87
2019-02-08T05:56:00.010Z,17.85
2019-02-08T05:56:59.930Z,17.88
2019-02-08T05:57:59.625Z,17.87
2019-02-08T05:59:01.189Z,17.87
2019-02-08T06:00:00.393Z,17.88
2019-02-08T06:01:01.377Z,17.89
2019-02-08T06:02:00.182Z,17.89
2019-02-08T06:02:59.854Z,17.88
2019-02-08T06:03:59.965Z,17.89
2019-02-08T06:04:59.714Z,17.88
2019-02-08T06:05:59.913Z,17.89
2019-02-08T06:06:59.658Z,17.93
2019-02-08T06:08:00.364Z,17.91
2019-02-08T06:08:59.545Z,17.88
2019-02-08T06:09:59.976Z,17.89
2019-02-08T06:11:00.104Z,17.91
2019-02-08T06:11:59.819Z,17.91
2019-02-08T06:13:00.109Z,17.91
2019-02-08T06:14:00.329Z,17.91
2019-02-08T06:15:00.075Z,17.91
2019-02-08T06:15:59.871Z,17.89
2019-02-08T06:17:00.761Z,17.89
2019-02-08T06:17:59.671Z,17.89
2019-02-08T06:19:00.322Z,17.94
2019-02-08T06:20:00.480Z,17.91
2019-02-08T06:20:59.913Z,17.93
2019-02-08T06:22:00.097Z,17.89
2019-02-08T06:22:59.800Z,17.91
2019-02-08T06:23:59.797Z,17.89
2019-02-08T06:25:05.289Z,17.91
2019-02-08T06:25:59.896Z,17.91
2019-02-08T06:27:00.138Z,17.91
2019-02-08T06:28:00.340Z,17.88
2019-02-08T06:29:00.133Z,17.88
2019-02-08T06:30:00.519Z,17.87
2019-02-08T06:31:00.683Z,17.89
2019-02-08T06:31:59.745Z,17.85
2019-02-08T06:33:00.033Z,17.88
2019-02-08T06:33:59.814Z,17.88
2019-02-08T06:35:00.491Z,17.88
2019-02-08T06:35:59.975Z,17.87
2019-02-08T06:36:59.883Z,17.85
2019-02-08T06:38:00.259Z,17.87
2019-02-08T06:38:59.512Z,17.87
2019-02-08T06:40:00.503Z,17.85
2019-02-08T06:40:59.529Z,17.85
2019-02-08T06:41:59.671Z,17.85
2019-02-08T06:42:59.969Z,17.85
2019-02-08T06:44:00.575Z,17.85
2019-02-08T06:44:59.921Z,17.82
2019-02-08T06:45:59.849Z,17.84
2019-02-08T06:46:59.605Z,17.84
2019-02-08T06:48:00.089Z,17.81
2019-02-08T06:49:00.461Z,17.84
2019-02-08T06:49:59.966Z,17.81
2019-02-08T06:51:00.076Z,17.82
2019-02-08T06:51:59.463Z,17.81
2019-02-08T06:52:59.583Z,17.82
2019-02-08T06:53:59.872Z,17.81
2019-02-08T06:54:59.890Z,17.8
2019-02-08T06:55:59.922Z,17.81
2019-02-08T06:56:59.557Z,17.8
2019-02-08T06:57:59.819Z,17.82
2019-02-08T06:58:59.858Z,17.8
2019-02-08T06:59:59.724Z,17.8
2019-02-08T07:00:59.724Z,17.81
2019-02-08T07:01:59.921Z,17.8
2019-02-08T07:02:59.796Z,17.81
2019-02-08T07:04:01.518Z,17.8
2019-02-08T07:04:59.740Z,17.8
2019-02-08T07:05:59.933Z,17.81
2019-02-08T07:06:59.756Z,17.8
2019-02-08T07:08:00.269Z,17.8
2019-02-08T07:09:00.265Z,17.81
2019-02-08T07:09:59.958Z,17.77
2019-02-08T07:10:59.984Z,17.8
2019-02-08T07:11:59.435Z,17.78
2019-02-08T07:13:00.147Z,17.8
2019-02-08T07:14:01.438Z,17.82
2019-02-08T07:14:59.516Z,17.8
2019-02-08T07:15:59.586Z,17.8
2019-02-08T07:17:00.798Z,17.8
2019-02-08T07:17:59.517Z,17.77
2019-02-08T07:18:59.856Z,17.78
2019-02-08T07:20:00.379Z,17.8
2019-02-08T07:21:00.054Z,17.78
2019-02-08T07:22:00.197Z,17.77
2019-02-08T07:22:59.642Z,17.78
2019-02-08T07:24:00.255Z,17.77
2019-02-08T07:25:00.024Z,17.78
2019-02-08T07:26:00.877Z,17.77
2019-02-08T07:27:00.355Z,17.78
2019-02-08T07:27:59.916Z,17.78
2019-02-08T07:29:00.026Z,17.77
2019-02-08T07:30:00.295Z,17.77
2019-02-08T07:30:59.995Z,17.77
2019-02-08T07:32:00.475Z,17.76
2019-02-08T07:33:00.059Z,17.78
2019-02-08T07:33:59.566Z,17.78
2019-02-08T07:35:00.053Z,17.77
2019-02-08T07:36:00.106Z,17.78
2019-02-08T07:36:59.908Z,17.8
2019-02-08T07:38:01.616Z,17.78
2019-02-08T07:38:59.549Z,17.77
2019-02-08T07:40:00.328Z,17.77
2019-02-08T07:40:59.392Z,17.77
2019-02-08T07:41:59.702Z,17.78
2019-02-08T07:43:01.042Z,17.77
2019-02-08T07:44:01.500Z,17.77
2019-02-08T07:45:00.053Z,17.74
2019-02-08T07:45:59.570Z,17.76
2019-02-08T07:46:59.749Z,17.78
2019-02-08T07:48:00.229Z,17.77
2019-02-08T07:49:01.595Z,17.77
2019-02-08T07:50:00.341Z,17.78
2019-02-08T07:50:59.549Z,17.77
2019-02-08T07:52:00.102Z,17.76
2019-02-08T07:53:00.493Z,17.76
2019-02-08T07:54:00.000Z,17.77
2019-02-08T07:55:01.389Z,17.76
2019-02-08T07:56:00.050Z,17.77
2019-02-08T07:57:00.429Z,17.77
2019-02-08T07:57:59.822Z,17.76
2019-02-08T07:58:59.837Z,17.78
2019-02-08T07:59:59.745Z,17.81
2019-02-08T08:00:59.713Z,17.78
2019-02-08T08:01:59.625Z,17.8
2019-02-08T08:03:00.081Z,17.8
2019-02-08T08:04:01.974Z,17.77
2019-02-08T08:04:59.499Z,17.81
2019-02-08T08:05:59.851Z,17.82
2019-02-08T08:06:59.783Z,17.81
2019-02-08T08:08:00.675Z,17.81
2019-02-08T08:08:59.581Z,17.81
2019-02-08T08:09:59.939Z,17.81
2019-02-08T08:10:59.789Z,17.84
2019-02-08T08:11:59.543Z,17.82
2019-02-08T08:12:59.942Z,17.81
2019-02-08T08:13:59.575Z,17.82
2019-02-08T08:14:59.407Z,17.84
2019-02-08T08:16:00.111Z,17.85
2019-02-08T08:16:59.991Z,17.85
2019-02-08T08:18:00.392Z,17.85
2019-02-08T08:19:00.203Z,17.85
2019-02-08T08:20:00.024Z,17.84
2019-02-08T08:20:59.904Z,17.85
2019-02-08T08:22:00.236Z,17.84
2019-02-08T08:22:59.927Z,17.88
2019-02-08T08:23:59.954Z,17.87
2019-02-08T08:25:00.036Z,17.88
2019-02-08T08:25:59.749Z,17.89
2019-02-08T08:26:59.527Z,17.88
2019-02-08T08:28:00.050Z,17.88
2019-02-08T08:29:00.062Z,17.89
2019-02-08T08:29:59.526Z,17.88
2019-02-08T08:31:00.094Z,17.88
2019-02-08T08:31:59.594Z,17.89
2019-02-08T08:33:00.108Z,17.89
2019-02-08T08:33:59.691Z,17.88
2019-02-08T08:35:00.010Z,17.89
2019-02-08T08:36:00.081Z,17.88
2019-02-08T08:36:59.613Z,17.91
2019-02-08T08:37:59.866Z,17.91
2019-02-08T08:38:59.957Z,17.91
2019-02-08T08:39:59.630Z,17.89
2019-02-08T08:40:59.949Z,17.89
2019-02-08T08:41:59.990Z,17.91
2019-02-08T08:43:00.074Z,17.91
2019-02-08T08:44:00.162Z,17.89
2019-02-08T08:45:00.059Z,17.93
2019-02-08T08:45:59.601Z,17.93
2019-02-08T08:47:00.022Z,17.89
2019-02-08T08:47:59.800Z,17.93
2019-02-08T08:49:00.100Z,17.93
2019-02-08T08:50:00.004Z,17.93
2019-02-08T08:50:59.826Z,17.91
2019-02-08T08:51:59.836Z,17.93
2019-02-08T08:52:59.850Z,17.95
2019-02-08T08:53:59.663Z,17.97
2019-02-08T08:54:59.851Z,17.97
2019-02-08T08:55:59.725Z,17.97
2019-02-08T08:56:59.492Z,18
2019-02-08T08:58:00.090Z,18
2019-02-08T08:58:59.874Z,18.01
2019-02-08T08:59:59.581Z,18.01
2019-02-08T09:01:00.099Z,18.04
2019-02-08T09:01:59.933Z,18.05
2019-02-08T09:03:00.252Z,18.08
2019-02-08T09:03:59.505Z,18.08
2019-02-08T09:04:59.529Z,18.09
2019-02-08T09:06:07.990Z,18.11
2019-02-08T09:07:00.227Z,18.13
2019-02-08T09:08:00.444Z,18.15
2019-02-08T09:08:59.522Z,18.19
2019-02-08T09:09:59.833Z,18.18
2019-02-08T09:11:00.213Z,18.18
2019-02-08T09:11:59.428Z,18.25
2019-02-08T09:12:59.787Z,18.25
2019-02-08T09:13:59.963Z,18.28
2019-02-08T09:14:59.528Z,18.33
2019-02-08T09:15:59.983Z,18.35
2019-02-08T09:16:59.512Z,18.37
2019-02-08T09:17:59.594Z,18.4
2019-02-08T09:18:59.734Z,18.44
2019-02-08T09:19:59.701Z,18.47
2019-02-08T09:20:59.939Z,18.49
2019-02-08T09:21:59.717Z,18.5
2019-02-08T09:22:59.836Z,18.53
2019-02-08T09:23:59.621Z,18.53
2019-02-08T09:24:59.480Z,18.54
2019-02-08T09:25:59.972Z,18.56
2019-02-08T09:26:59.871Z,18.6
2019-02-08T09:28:00.730Z,18.63
2019-02-08T09:28:59.376Z,18.63
2019-02-08T09:30:00.442Z,18.64
2019-02-08T09:30:59.955Z,18.67
2019-02-08T09:31:59.889Z,18.67
2019-02-08T09:32:59.884Z,18.67
2019-02-08T09:33:59.410Z,18.7
2019-02-08T09:35:00.102Z,18.71
2019-02-08T09:36:00.033Z,18.71
2019-02-08T09:37:01.402Z,18.74
2019-02-08T09:37:59.592Z,18.75
2019-02-08T09:39:01.485Z,18.77
2019-02-08T09:39:59.612Z,18.77
2019-02-08T09:40:59.496Z,18.73
2019-02-08T09:41:59.653Z,18.74
2019-02-08T09:42:59.691Z,18.74
2019-02-08T09:43:59.890Z,18.77
2019-02-08T09:44:59.883Z,18.75
2019-02-08T09:46:00.109Z,18.73
2019-02-08T09:46:59.945Z,18.75
2019-02-08T09:47:59.850Z,18.75
2019-02-08T09:48:59.928Z,18.77
2019-02-08T09:49:59.845Z,18.78
2019-02-08T09:50:59.963Z,18.78
2019-02-08T09:51:59.626Z,18.8
2019-02-08T09:53:00.030Z,18.78
2019-02-08T09:53:59.784Z,18.81
2019-02-08T09:54:59.601Z,18.83
2019-02-08T09:56:00.223Z,18.87
2019-02-08T09:56:59.378Z,18.83
2019-02-08T09:57:59.801Z,18.87
2019-02-08T09:59:00.453Z,18.88
2019-02-08T10:00:00.071Z,18.91
2019-02-08T10:01:00.001Z,18.91
2019-02-08T10:02:00.006Z,18.9
2019-02-08T10:02:59.768Z,18.9
2019-02-08T10:04:00.241Z,18.9
2019-02-08T10:04:59.822Z,18.91
2019-02-08T10:05:59.846Z,18.92
2019-02-08T10:06:59.522Z,18.94
2019-02-08T10:08:00.050Z,18.91
2019-02-08T10:09:00.542Z,18.94
2019-02-08T10:09:59.760Z,18.95
2019-02-08T10:10:59.848Z,18.95
2019-02-08T10:12:01.277Z,18.94
2019-02-08T10:12:59.440Z,18.97
2019-02-08T10:14:00.123Z,18.95
2019-02-08T10:14:59.589Z,18.94
2019-02-08T10:16:00.033Z,18.94
2019-02-08T10:16:59.848Z,18.94
2019-02-08T10:17:59.826Z,18.95
2019-02-08T10:18:59.842Z,18.97
2019-02-08T10:20:00.593Z,18.97
2019-02-08T10:21:00.363Z,18.97
2019-02-08T10:21:59.610Z,18.95
2019-02-08T10:22:59.759Z,18.95
2019-02-08T10:23:59.878Z,18.95
2019-02-08T10:25:00.864Z,18.95
2019-02-08T10:26:05.811Z,18.98
2019-02-08T10:26:59.964Z,19.01
2019-02-08T10:28:00.095Z,19.01
2019-02-08T10:29:00.200Z,19.02
2019-02-08T10:30:00.363Z,19.02
2019-02-08T10:30:59.583Z,19.03
2019-02-08T10:32:00.143Z,19.05
2019-02-08T10:33:00.046Z,19.05
2019-02-08T10:33:59.546Z,19.08
2019-02-08T10:34:59.637Z,19.09
2019-02-08T10:36:01.396Z,19.09
2019-02-08T10:36:59.998Z,19.11
2019-02-08T10:37:59.954Z,19.12
2019-02-08T10:38:59.988Z,19.12
2019-02-08T10:39:59.810Z,19.13
2019-02-08T10:40:59.719Z,19.15
2019-02-08T10:41:59.888Z,19.18
2019-02-08T10:43:01.490Z,19.18
2019-02-08T10:43:59.523Z,19.19
2019-02-08T10:45:00.481Z,19.2
2019-02-08T10:46:00.121Z,19.23
2019-02-08T10:46:59.394Z,19.23
2019-02-08T10:48:00.082Z,19.23
2019-02-08T10:49:00.046Z,19.25
2019-02-08T10:49:59.775Z,19.27
2019-02-08T10:51:00.279Z,19.29
2019-02-08T10:51:59.882Z,19.3
2019-02-08T10:53:00.416Z,19.3
2019-02-08T10:53:59.879Z,19.32
2019-02-08T10:54:59.825Z,19.27
2019-02-08T10:56:00.149Z,19.29
2019-02-08T10:56:59.943Z,19.3
2019-02-08T10:57:59.539Z,19.32
2019-02-08T10:59:00.132Z,19.33
2019-02-08T10:59:59.645Z,19.36
2019-02-08T11:01:00.146Z,19.36
2019-02-08T11:01:59.614Z,19.36
2019-02-08T11:02:59.826Z,19.39
2019-02-08T11:03:59.742Z,19.36
2019-02-08T11:04:59.954Z,19.37
2019-02-08T11:05:59.879Z,19.39
2019-02-08T11:07:00.024Z,19.39
2019-02-08T11:08:00.593Z,19.39
2019-02-08T11:09:01.315Z,19.37
2019-02-08T11:10:00.338Z,19.42
2019-02-08T11:11:00.089Z,19.4
2019-02-08T11:11:59.963Z,19.4
2019-02-08T11:12:59.888Z,19.4
2019-02-08T11:13:59.936Z,19.42
2019-02-08T11:15:00.299Z,19.4
2019-02-08T11:16:00.134Z,19.42
2019-02-08T11:16:59.701Z,19.43
2019-02-08T11:18:00.482Z,19.42
2019-02-08T11:19:00.357Z,19.43
2019-02-08T11:20:00.322Z,19.4
2019-02-08T11:21:00.082Z,19.43
2019-02-08T11:21:59.994Z,19.45
2019-02-08T11:22:59.985Z,19.45
2019-02-08T11:23:59.991Z,19.45
2019-02-08T11:24:59.688Z,19.45
2019-02-08T11:26:01.387Z,19.43
2019-02-08T11:27:00.234Z,19.45
2019-02-08T11:27:59.994Z,19.43
2019-02-08T11:28:59.601Z,19.45
2019-02-08T11:30:00.490Z,19.49
2019-02-08T11:30:59.597Z,19.46
2019-02-08T11:31:59.929Z,19.47
2019-02-08T11:32:59.507Z,19.46
2019-02-08T11:33:59.742Z,19.46
2019-02-08T11:34:59.669Z,19.49
2019-02-08T11:35:59.635Z,19.47
2019-02-08T11:36:59.938Z,19.5
2019-02-08T11:37:59.702Z,19.46
2019-02-08T11:39:01.412Z,19.49
2019-02-08T11:39:59.504Z,19.5
2019-02-08T11:41:00.835Z,19.52
2019-02-08T11:41:59.876Z,19.5
2019-02-08T11:43:00.028Z,19.5
2019-02-08T11:43:59.861Z,19.49
2019-02-08T11:44:59.874Z,19.49
2019-02-08T11:45:59.645Z,19.47
2019-02-08T11:46:59.939Z,19.5
2019-02-08T11:47:59.336Z,19.49
2019-02-08T11:49:01.361Z,19.46
2019-02-08T11:49:59.654Z,19.46
2019-02-08T11:50:59.513Z,19.47
2019-02-08T11:52:00.300Z,19.47
2019-02-08T11:52:59.806Z,19.47
2019-02-08T11:53:59.941Z,19.49
2019-02-08T11:54:59.513Z,19.49
2019-02-08T11:55:59.843Z,19.49
2019-02-08T11:57:00.011Z,19.52
2019-02-08T11:57:59.962Z,19.52
2019-02-08T11:58:59.535Z,19.52
2019-02-08T11:59:59.686Z,19.54
2019-02-08T12:00:59.540Z,19.53
2019-02-08T12:02:01.294Z,19.56
2019-02-08T12:03:00.569Z,19.54
2019-02-08T12:04:01.338Z,19.58
2019-02-08T12:04:59.863Z,19.58
2019-02-08T12:06:00.218Z,19.58
2019-02-08T12:06:59.504Z,19.57
2019-02-08T12:08:00.231Z,19.58
2019-02-08T12:08:59.799Z,19.61
2019-02-08T12:10:01.380Z,19.64
2019-02-08T12:10:59.937Z,19.64
2019-02-08T12:12:01.257Z,19.65
2019-02-08T12:12:59.651Z,19.64
2019-02-08T12:13:59.934Z,19.65
2019-02-08T12:14:59.502Z,19.64
2019-02-08T12:15:59.593Z,19.67
2019-02-08T12:17:00.547Z,19.68
2019-02-08T12:17:59.822Z,19.65
2019-02-08T12:19:00.057Z,19.68
2019-02-08T12:19:59.867Z,19.67
2019-02-08T12:21:00.584Z,19.7
2019-02-08T12:22:00.034Z,19.71
2019-02-08T12:22:59.547Z,19.7
2019-02-08T12:24:00.918Z,19.71
2019-02-08T12:25:00.008Z,19.73
2019-02-08T12:25:59.840Z,19.71
2019-02-08T12:26:59.393Z,19.74
2019-02-08T12:28:00.315Z,19.71
2019-02-08T12:28:59.422Z,19.73
2019-02-08T12:29:59.802Z,19.74
2019-02-08T12:31:01.491Z,19.75
2019-02-08T12:31:59.798Z,19.75
2019-02-08T12:32:59.907Z,19.77
2019-02-08T12:34:00.090Z,19.75
2019-02-08T12:34:59.789Z,19.77
2019-02-08T12:36:00.415Z,19.77
2019-02-08T12:36:59.287Z,19.78
2019-02-08T12:37:59.525Z,19.78
2019-02-08T12:39:00.606Z,19.77
2019-02-08T12:40:01.305Z,19.77
2019-02-08T12:40:59.939Z,19.77
2019-02-08T12:41:59.740Z,19.77
2019-02-08T12:42:59.434Z,19.78
2019-02-08T12:43:59.812Z,19.84
2019-02-08T12:44:59.964Z,19.81
2019-02-08T12:45:59.416Z,19.8
2019-02-08T12:46:59.591Z,19.84
2019-02-08T12:47:59.977Z,19.81
2019-02-08T12:48:59.519Z,19.8
2019-02-08T12:49:59.713Z,19.82
2019-02-08T12:50:59.897Z,19.84
2019-02-08T12:51:59.915Z,19.82
2019-02-08T12:53:00.091Z,19.81
2019-02-08T12:54:01.313Z,19.81
2019-02-08T12:54:59.899Z,19.82